Carlson, Washington
Current Conditions -  °F | °C
As of 8:58 PM on Monday 22 Dec 2014 (Local Time) from KGRF Reporting Station
Haze Haze  
Wind Chill:   Ceiling: 12000
Heat Index:   Visibility: 5mi
Dew Point:   Wind: 1mph
Humidity: 99%   Direction: 110°ESE
Pressure: 30.34"   Gusts: NA
Location:  46.6944°N, 122.245°W
Report Text: KGRF 230458Z 11001KT 5SM BR SCT095 BKN120 06/06 A3034 RMK AO2A SLP280 WND DATA ESTMD T00590058 $
Loading
Personal Weather Stations






























Interactive Weather Map New forecast layout! Learn more

10-Day Weather Forecast

Advertisements
Track Severe Weather on mobile